Cottonwood, Oklahoma
Current Conditions -  °F | °C
As of 8:55 AM on Saturday 20 Dec 2014 (Local Time) from KAQR Reporting Station
Haze Haze  
Wind Chill: 43°   Ceiling: 700
Heat Index: 43°   Visibility: 4mi
Dew Point: 41°   Wind: 0mph
Humidity: 93%   Direction: NA
Pressure: 30.27"   Gusts: NA
Location:  34.5844°N, 96.2026°W
Report Text: KAQR 201455Z AUTO 00000KT 4SM BR BKN007 OVC027 06/05 A3027 RMK AO2
Loading
Personal Weather Stations






























Interactive Weather Map New forecast layout! Learn more

10-Day Weather Forecast

Advertisements
Track Severe Weather on mobile